Time;durP1;ratioP1;P1;durP2;ratioP2;P2;SDS_P1;SDS_P2;PMS_P1;PMS_P2;Temp;Humidity;BMP_temperature;BMP_pressure;BME280_temperature;BME280_humidity;BME280_pressure;Samples;Min_cycle;Max_cycle;Signal;HPM_P1;HPM_P2
2023/08/17 19:10:34;;;;;;;5.05;2.88;;;27.60;68.00;;;;;;6968051;27;24520;-83
2023/08/17 19:13:57;;;;;;;6.40;3.05;;;27.60;68.10;;;;;;6879151;28;20087;-80
2023/08/17 19:17:20;;;;;;;6.22;3.15;;;27.50;67.90;;;;;;6949965;28;20037;-82
2023/08/17 19:22:08;;;;;;;6.82;3.30;;;27.50;67.40;;;;;;6830649;28;2318610;-81
2023/08/17 19:25:32;;;;;;;6.28;3.55;;;27.50;68.00;;;;;;6944830;28;20162;-84
2023/08/17 19:31:08;;;;;;;5.57;2.83;;;27.50;67.50;;;;;;7088445;27;1365261;-76
2023/08/17 19:34:31;;;;;;;6.75;2.97;;;27.50;68.10;;;;;;7061328;27;20044;-79
2023/08/17 19:37:54;;;;;;;6.43;3.00;;;27.50;68.00;;;;;;7068773;27;20516;-81
2023/08/17 19:41:16;;;;;;;6.63;2.90;;;27.50;68.20;;;;;;7089007;27;20050;-81
2023/08/17 19:44:39;;;;;;;7.10;2.88;;;27.50;68.30;;;;;;7073940;27;20439;-75
2023/08/17 19:48:04;;;;;;;6.15;2.53;;;27.50;68.20;;;;;;7077292;27;20088;-80
2023/08/17 19:51:26;;;;;;;5.63;2.67;;;27.50;68.20;;;;;;7069399;27;20500;-83
2023/08/17 19:54:51;;;;;;;5.65;2.80;;;27.50;68.20;;;;;;7076588;27;20059;-84
2023/08/17 19:58:14;;;;;;;5.10;2.65;;;27.40;68.20;;;;;;7074580;27;20063;-82
2023/08/17 20:01:37;;;;;;;5.85;2.60;;;27.40;68.20;;;;;;7060097;27;20063;-83
2023/08/17 20:05:01;;;;;;;4.70;2.45;;;27.40;68.20;;;;;;6977996;27;20045;-80
2023/08/17 20:08:23;;;;;;;5.20;2.22;;;27.40;68.20;;;;;;7023042;28;20051;-84
2023/08/17 20:11:46;;;;;;;4.15;2.25;;;27.40;68.30;;;;;;7044428;28;20072;-77
2023/08/17 20:15:10;;;;;;;3.90;1.70;;;27.40;69.50;;;;;;7058389;28;20438;-77
2023/08/17 20:18:32;;;;;;;4.63;1.70;;;27.40;68.60;;;;;;7060063;28;20059;-78
2023/08/17 20:21:57;;;;;;;4.18;1.63;;;27.50;68.70;;;;;;7060395;28;20028;-75
2023/08/17 20:25:23;;;;;;;4.07;1.77;;;27.40;68.70;;;;;;7068016;28;20031;-74
2023/08/17 20:28:52;;;;;;;3.42;1.63;;;27.40;68.70;;;;;;7064912;28;20075;-76
2023/08/17 20:32:14;;;;;;;;;;;27.40;68.90;;;;;;7057811;28;20036;-76
2023/08/17 20:35:39;;;;;;;2.95;1.10;;;27.40;68.60;;;;;;7049833;28;19950;-75
2023/08/17 20:39:09;;;;;;;4.47;1.50;;;27.30;68.80;;;;;;7072278;28;20047;-76
2023/08/17 20:42:31;;;;;;;2.95;1.25;;;27.40;68.80;;;;;;7054739;28;20035;-76
2023/08/17 20:47:13;;;;;;;3.55;1.30;;;27.30;68.20;;;;;;7046859;27;21375;-76
2023/08/17 20:50:40;;;;;;;3.92;1.75;;;27.30;68.90;;;;;;7000618;28;20047;-76
2023/08/17 20:54:02;;;;;;;4.85;1.73;;;27.30;68.90;;;;;;7014027;28;20403;-75
2023/08/17 20:57:25;;;;;;;5.05;1.58;;;27.30;68.90;;;;;;7018465;28;20102;-76
2023/08/17 21:00:49;;;;;;;3.40;1.45;;;27.30;68.90;;;;;;7018566;28;20048;-76
2023/08/17 21:04:15;;;;;;;3.47;1.40;;;27.30;69.00;;;;;;7017917;28;20177;-76
2023/08/17 21:07:39;;;;;;;;;;;27.30;68.90;;;;;;7018627;28;20048;-75
2023/08/17 21:11:06;;;;;;;4.00;1.58;;;27.30;68.80;;;;;;7015167;28;19924;-76
2023/08/17 21:14:30;;;;;;;3.60;1.63;;;27.30;68.90;;;;;;7016979;28;20120;-75
2023/08/17 21:17:52;;;;;;;3.40;1.17;;;27.30;69.00;;;;;;7018142;28;20510;-76
2023/08/17 21:21:16;;;;;;;3.63;1.50;;;27.20;69.00;;;;;;7016854;28;20044;-76
2023/08/17 21:24:38;;;;;;;3.40;1.60;;;27.30;69.10;;;;;;7021298;28;20048;-76
2023/08/17 21:29:19;;;;;;;3.20;1.45;;;27.30;68.40;;;;;;7075110;27;20760;-77
2023/08/17 21:32:44;;;;;;;3.42;1.35;;;27.30;69.20;;;;;;7048714;28;20440;-75
2023/08/17 21:36:07;;;;;;;;;;;27.30;69.20;;;;;;7047546;28;20398;-77
2023/08/17 21:39:29;;;;;;;3.20;1.40;;;27.30;69.00;;;;;;7046415;28;19928;-76
2023/08/17 21:42:55;;;;;;;3.45;1.52;;;27.20;69.10;;;;;;7047111;28;20032;-76
2023/08/17 21:46:19;;;;;;;3.22;1.52;;;27.20;69.10;;;;;;7038165;28;20039;-76
2023/08/17 21:49:42;;;;;;;3.38;1.48;;;27.20;69.20;;;;;;7044678;28;20051;-77
2023/08/17 21:53:58;;;;;;;3.85;1.48;;;27.20;68.60;;;;;;7074564;27;20807;-76
2023/08/17 21:57:20;;;;;;;3.80;1.77;;;27.20;69.30;;;;;;7045051;28;20132;-78
2023/08/17 22:00:43;;;;;;;4.05;1.48;;;27.20;69.30;;;;;;7028110;28;20130;-76
2023/08/17 22:04:05;;;;;;;3.45;1.48;;;27.20;69.30;;;;;;7047129;28;20470;-76
2023/08/17 22:07:29;;;;;;;3.08;1.30;;;27.20;69.30;;;;;;7045977;28;20367;-75
2023/08/17 22:10:53;;;;;;;3.42;1.70;;;27.20;69.90;;;;;;7045856;28;20044;-75
2023/08/17 22:14:16;;;;;;;3.42;1.50;;;27.20;69.30;;;;;;7046356;28;20486;-75
2023/08/17 22:17:38;;;;;;;4.18;1.80;;;27.20;69.40;;;;;;7045756;28;20494;-76
2023/08/17 22:22:22;;;;;;;3.60;1.58;;;27.20;68.70;;;;;;7074783;27;21314;-75
2023/08/17 22:25:45;;;;;;;3.10;1.65;;;27.20;69.40;;;;;;7062842;27;20040;-74
2023/08/17 22:29:07;;;;;;;3.20;1.67;;;27.20;69.50;;;;;;7046288;28;20410;-73
2023/08/17 22:33:56;;;;;;;3.35;1.52;;;27.20;68.70;;;;;;7075010;27;20721;-75
2023/08/17 22:37:19;;;;;;;2.95;1.55;;;27.10;69.40;;;;;;7029333;28;20036;-75
2023/08/17 22:40:41;;;;;;;3.67;1.73;;;27.20;69.50;;;;;;7045630;28;20048;-74
2023/08/17 22:44:04;;;;;;;3.45;1.60;;;27.10;69.40;;;;;;7046142;28;20040;-76
2023/08/17 22:47:26;;;;;;;2.90;1.50;;;27.10;69.40;;;;;;7046010;28;20051;-76
2023/08/17 22:50:50;;;;;;;3.50;1.65;;;27.10;69.40;;;;;;7046585;28;20040;-75
2023/08/17 22:54:12;;;;;;;3.58;1.50;;;27.10;69.40;;;;;;7046548;28;20072;-75
2023/08/17 22:57:35;;;;;;;3.65;1.52;;;27.10;69.40;;;;;;7046034;28;20044;-76
2023/08/17 23:00:57;;;;;;;4.22;1.75;;;27.10;69.40;;;;;;7044770;28;20048;-75
2023/08/17 23:04:19;;;;;;;3.30;1.50;;;27.20;69.40;;;;;;7044863;28;20043;-76
2023/08/17 23:07:44;;;;;;;3.78;1.70;;;27.10;69.30;;;;;;7046442;28;20097;-75
2023/08/17 23:11:06;;;;;;;3.63;1.67;;;27.10;69.30;;;;;;7045836;28;20035;-76
2023/08/17 23:14:28;;;;;;;4.65;1.58;;;27.10;69.20;;;;;;7046069;28;20047;-76
2023/08/17 23:17:51;;;;;;;3.47;1.70;;;27.10;69.20;;;;;;7045500;28;20071;-76
2023/08/17 23:21:15;;;;;;;3.38;1.90;;;27.10;69.20;;;;;;7045130;28;20062;-75
2023/08/17 23:24:39;;;;;;;3.30;1.75;;;27.10;69.20;;;;;;7044116;28;20040;-76
2023/08/17 23:28:01;;;;;;;3.20;1.65;;;27.10;69.30;;;;;;7046107;28;20028;-76
2023/08/17 23:31:24;;;;;;;3.30;1.58;;;27.10;69.40;;;;;;7045328;28;20044;-76
2023/08/17 23:34:46;;;;;;;3.70;1.92;;;27.10;69.40;;;;;;7045086;28;20522;-75
2023/08/17 23:40:12;;;;;;;3.08;1.42;;;27.10;68.80;;;;;;7076513;27;20811;-76
2023/08/17 23:43:35;;;;;;;3.17;1.38;;;27.10;69.40;;;;;;7024596;28;20068;-77
2023/08/17 23:46:57;;;;;;;3.20;1.52;;;27.10;69.50;;;;;;7016607;28;20375;-75
2023/08/17 23:50:20;;;;;;;4.45;1.60;;;27.10;69.40;;;;;;7017227;28;20044;-76
2023/08/17 23:53:42;;;;;;;3.70;1.70;;;27.10;69.50;;;;;;7018537;28;20052;-75
2023/08/17 23:57:07;;;;;;;3.28;1.77;;;27.10;69.50;;;;;;7017270;28;20074;-75
